The Canyons, Utah
Current Conditions -  °F | °C
As of 4:15 PM on Saturday 25 Oct 2014 (Local Time) from K36U Reporting Station
Clear Clear  
Wind Chill: 72°   Ceiling: Unl
Heat Index: 72°   Visibility: 10mi
Dew Point: 30°   Wind: 21mph
Humidity: 22%   Direction: 230°SW
Pressure: 30.03"   Gusts: NA
Location:  40.71°N, 111.53°W
Report Text: K36U 252215Z AUTO 23018KT 10SM CLR 22/M01 A3003 RMK AO2
Loading
Personal Weather Stations






























Interactive Weather Map New forecast layout! Learn more

10-Day Weather Forecast

Advertisements
Track Severe Weather on mobile